Strona główna
METAR-TAF:

METAR-TAF

Lotnisko :

Brno, Czechy

Port lotniczy Brno-Tuřany

Szerokość geograficzna: 49-09N, Długość geograficzna: 016-42E, wysokość: 241 m

Aktualna obserwacja pogody

Raport powstał 14 minut temu, godzina 09:30 UTC
Wiatr 8 kt od północny wschód, zmienny między północ i wschodnio-północny wschód
Temperatura -9°C
Wilgotność 62%
Ciśnienie 1026 hPa
Widzialność 10 km lub więcej
Rozproszone chmury na wysokości 2600 ft
słaby śnieg

METAR: LKTB 250930Z 04008KT 010V070 9999 -SN SCT026 M09/M15 Q1026 NOSIG

czas: 10:44 (09:44 UTC)

Prognoza

Raport powstał 4 godziny i 44 minut temu, godzina 05:00 UTC
Prognoza ważna od 25 godzina 06 UTC do 26 godzina 12 UTC
Wiatr 12 kt od północno-północny wschód
Widzialność 10 km lub więcej
Rozproszone chmury na wysokości 3500 ft
Przejściowo
od 25 godzina 06 UTC do 26 godzina 12 UTC
Przerywane chmury na wysokości 2700 ft

TAF: LKTB 250500Z 2506/2612 03012KT 9999 SCT035 TEMPO 2506/2612 BKN027

Obserwacja i prognoza pogody dla ponad 4000 lotnisk (raport METAR i TAF).

Dostępne stacje oznaczono żółtymi i czerwonymi punktami na mapie.

Najedź kursorem aby zobaczyć nazwę stacji.

Kliknij aby zobaczyć obserwacje i prognozy pogody.

Aby zmienić mapę: kliknij na zielony przycisk z czarnym krzyżykiem, aby powiększyć; na zielony przycisk z myślnikiem, aby pomniejszyć; na zielone strzałki, aby przejść do map sąsiednich.


METAR-TAF: